sensor_id;sensor_type;location;lat;lon;timestamp;temperature;humidity
57566;DHT22;63999;43.882;-0.310;2024-03-06T00:01:05;8.70;96.40
57566;DHT22;63999;43.882;-0.310;2024-03-06T00:03:34;8.70;96.50
57566;DHT22;63999;43.882;-0.310;2024-03-06T00:06:01;8.60;96.30
57566;DHT22;63999;43.882;-0.310;2024-03-06T00:08:28;8.70;96.40
57566;DHT22;63999;43.882;-0.310;2024-03-06T00:10:55;8.70;96.40
57566;DHT22;63999;43.882;-0.310;2024-03-06T00:13:22;8.60;96.40
57566;DHT22;63999;43.882;-0.310;2024-03-06T00:15:50;8.60;96.30
57566;DHT22;63999;43.882;-0.310;2024-03-06T00:18:17;8.60;96.30
57566;DHT22;63999;43.882;-0.310;2024-03-06T00:20:44;8.60;96.40
57566;DHT22;63999;43.882;-0.310;2024-03-06T00:23:11;8.60;96.40
57566;DHT22;63999;43.882;-0.310;2024-03-06T00:25:38;8.60;96.30
57566;DHT22;63999;43.882;-0.310;2024-03-06T00:28:06;8.60;96.30
57566;DHT22;63999;43.882;-0.310;2024-03-06T00:30:33;8.60;96.30
57566;DHT22;63999;43.882;-0.310;2024-03-06T00:33:00;8.60;96.30
57566;DHT22;63999;43.882;-0.310;2024-03-06T00:35:27;8.60;96.30
57566;DHT22;63999;43.882;-0.310;2024-03-06T00:37:55;8.60;96.30
57566;DHT22;63999;43.882;-0.310;2024-03-06T00:40:22;8.60;96.30
57566;DHT22;63999;43.882;-0.310;2024-03-06T00:42:50;8.60;96.30
57566;DHT22;63999;43.882;-0.310;2024-03-06T00:45:17;8.60;96.20
57566;DHT22;63999;43.882;-0.310;2024-03-06T00:47:44;8.60;96.20
57566;DHT22;63999;43.882;-0.310;2024-03-06T00:50:11;8.60;96.20
57566;DHT22;63999;43.882;-0.310;2024-03-06T00:52:38;8.60;96.20
57566;DHT22;63999;43.882;-0.310;2024-03-06T00:55:06;8.60;96.20
57566;DHT22;63999;43.882;-0.310;2024-03-06T00:57:33;8.60;96.20
57566;DHT22;63999;43.882;-0.310;2024-03-06T01:00:00;8.50;96.20
57566;DHT22;63999;43.882;-0.310;2024-03-06T01:02:27;8.50;96.20
57566;DHT22;63999;43.882;-0.310;2024-03-06T01:04:55;8.50;96.20
57566;DHT22;63999;43.882;-0.310;2024-03-06T01:07:22;8.50;96.30
57566;DHT22;63999;43.882;-0.310;2024-03-06T01:09:49;8.50;96.20
57566;DHT22;63999;43.882;-0.310;2024-03-06T01:12:17;8.50;96.30
57566;DHT22;63999;43.882;-0.310;2024-03-06T01:14:45;8.50;96.20
57566;DHT22;63999;43.882;-0.310;2024-03-06T01:17:12;8.50;96.10
57566;DHT22;63999;43.882;-0.310;2024-03-06T01:19:39;8.50;96.20
57566;DHT22;63999;43.882;-0.310;2024-03-06T01:22:07;8.50;96.20
57566;DHT22;63999;43.882;-0.310;2024-03-06T01:24:34;8.50;96.10
57566;DHT22;63999;43.882;-0.310;2024-03-06T01:27:02;8.40;96.10
57566;DHT22;63999;43.882;-0.310;2024-03-06T01:29:30;8.40;96.10
57566;DHT22;63999;43.882;-0.310;2024-03-06T01:31:57;8.40;96.20
57566;DHT22;63999;43.882;-0.310;2024-03-06T01:34:24;8.40;96.10
57566;DHT22;63999;43.882;-0.310;2024-03-06T01:36:52;8.40;96.10
57566;DHT22;63999;43.882;-0.310;2024-03-06T01:39:19;8.40;96.10
57566;DHT22;63999;43.882;-0.310;2024-03-06T01:41:47;8.40;96.00
57566;DHT22;63999;43.882;-0.310;2024-03-06T01:44:18;8.40;96.10
57566;DHT22;63999;43.882;-0.310;2024-03-06T01:46:46;8.30;96.00
57566;DHT22;63999;43.882;-0.310;2024-03-06T01:49:15;8.30;96.00
57566;DHT22;63999;43.882;-0.310;2024-03-06T01:51:58;8.30;96.00
57566;DHT22;63999;43.882;-0.310;2024-03-06T01:54:27;8.30;96.00
57566;DHT22;63999;43.882;-0.310;2024-03-06T01:56:54;8.30;96.00
57566;DHT22;63999;43.882;-0.310;2024-03-06T01:59:24;8.30;95.90
57566;DHT22;63999;43.882;-0.310;2024-03-06T02:02:03;8.30;95.90
57566;DHT22;63999;43.882;-0.310;2024-03-06T02:04:31;8.20;95.90
57566;DHT22;63999;43.882;-0.310;2024-03-06T02:06:59;8.20;95.80
57566;DHT22;63999;43.882;-0.310;2024-03-06T02:09:26;8.20;95.80
57566;DHT22;63999;43.882;-0.310;2024-03-06T02:11:53;8.20;95.70
57566;DHT22;63999;43.882;-0.310;2024-03-06T02:14:21;8.20;95.70
57566;DHT22;63999;43.882;-0.310;2024-03-06T02:16:48;8.10;95.70
57566;DHT22;63999;43.882;-0.310;2024-03-06T02:19:15;8.10;95.60
57566;DHT22;63999;43.882;-0.310;2024-03-06T02:21:42;8.10;95.50
57566;DHT22;63999;43.882;-0.310;2024-03-06T02:24:10;8.10;95.50
57566;DHT22;63999;43.882;-0.310;2024-03-06T02:26:38;8.00;95.60
57566;DHT22;63999;43.882;-0.310;2024-03-06T02:29:06;8.00;95.50
57566;DHT22;63999;43.882;-0.310;2024-03-06T02:31:33;8.00;95.60
57566;DHT22;63999;43.882;-0.310;2024-03-06T02:34:01;8.00;95.60
57566;DHT22;63999;43.882;-0.310;2024-03-06T02:36:31;8.00;95.50
57566;DHT22;63999;43.882;-0.310;2024-03-06T02:38:59;8.00;95.50
57566;DHT22;63999;43.882;-0.310;2024-03-06T02:41:26;8.00;95.40
57566;DHT22;63999;43.882;-0.310;2024-03-06T02:43:53;8.00;95.40
57566;DHT22;63999;43.882;-0.310;2024-03-06T02:46:20;8.00;95.50
57566;DHT22;63999;43.882;-0.310;2024-03-06T02:48:47;8.00;95.50
57566;DHT22;63999;43.882;-0.310;2024-03-06T02:51:18;8.00;95.50
57566;DHT22;63999;43.882;-0.310;2024-03-06T02:53:46;8.00;95.40
57566;DHT22;63999;43.882;-0.310;2024-03-06T02:56:17;7.90;95.30
57566;DHT22;63999;43.882;-0.310;2024-03-06T02:58:45;7.90;95.20
57566;DHT22;63999;43.882;-0.310;2024-03-06T03:01:15;7.90;95.20
57566;DHT22;63999;43.882;-0.310;2024-03-06T03:03:43;7.90;95.20
57566;DHT22;63999;43.882;-0.310;2024-03-06T03:06:10;7.80;95.20
57566;DHT22;63999;43.882;-0.310;2024-03-06T03:08:38;7.90;95.20
57566;DHT22;63999;43.882;-0.310;2024-03-06T03:11:05;7.80;95.10
57566;DHT22;63999;43.882;-0.310;2024-03-06T03:13:33;7.80;95.20
57566;DHT22;63999;43.882;-0.310;2024-03-06T03:16:00;7.80;95.10
57566;DHT22;63999;43.882;-0.310;2024-03-06T03:18:31;7.80;95.00
57566;DHT22;63999;43.882;-0.310;2024-03-06T03:20:58;7.80;95.10
57566;DHT22;63999;43.882;-0.310;2024-03-06T03:23:25;7.80;95.00
57566;DHT22;63999;43.882;-0.310;2024-03-06T03:25:52;7.80;94.90
57566;DHT22;63999;43.882;-0.310;2024-03-06T03:28:19;7.80;94.90
57566;DHT22;63999;43.882;-0.310;2024-03-06T03:30:46;7.70;94.80
57566;DHT22;63999;43.882;-0.310;2024-03-06T03:33:13;7.60;94.80
57566;DHT22;63999;43.882;-0.310;2024-03-06T03:35:41;7.60;94.70
57566;DHT22;63999;43.882;-0.310;2024-03-06T03:38:08;7.60;94.70
57566;DHT22;63999;43.882;-0.310;2024-03-06T03:40:39;7.50;94.70
57566;DHT22;63999;43.882;-0.310;2024-03-06T03:43:06;7.50;94.50
57566;DHT22;63999;43.882;-0.310;2024-03-06T03:45:34;7.50;94.50
57566;DHT22;63999;43.882;-0.310;2024-03-06T03:48:02;7.50;94.40
57566;DHT22;63999;43.882;-0.310;2024-03-06T03:50:32;7.50;94.50
57566;DHT22;63999;43.882;-0.310;2024-03-06T03:53:00;7.40;94.40
57566;DHT22;63999;43.882;-0.310;2024-03-06T03:55:28;7.40;94.40
57566;DHT22;63999;43.882;-0.310;2024-03-06T03:57:55;7.40;94.30
57566;DHT22;63999;43.882;-0.310;2024-03-06T04:00:23;7.40;94.30
57566;DHT22;63999;43.882;-0.310;2024-03-06T04:02:50;7.40;94.30
57566;DHT22;63999;43.882;-0.310;2024-03-06T04:05:18;7.40;94.30
57566;DHT22;63999;43.882;-0.310;2024-03-06T04:07:45;7.30;94.20
57566;DHT22;63999;43.882;-0.310;2024-03-06T04:10:12;7.30;94.20
57566;DHT22;63999;43.882;-0.310;2024-03-06T04:12:39;7.30;94.20
57566;DHT22;63999;43.882;-0.310;2024-03-06T04:15:07;7.30;94.20
57566;DHT22;63999;43.882;-0.310;2024-03-06T04:17:34;7.20;94.10
57566;DHT22;63999;43.882;-0.310;2024-03-06T04:20:05;7.20;94.10
57566;DHT22;63999;43.882;-0.310;2024-03-06T04:22:33;7.20;94.00
57566;DHT22;63999;43.882;-0.310;2024-03-06T04:25:00;7.20;94.00
57566;DHT22;63999;43.882;-0.310;2024-03-06T04:27:29;7.20;93.90
57566;DHT22;63999;43.882;-0.310;2024-03-06T04:29:56;7.20;93.90
57566;DHT22;63999;43.882;-0.310;2024-03-06T04:32:23;7.10;93.70
57566;DHT22;63999;43.882;-0.310;2024-03-06T04:34:51;7.10;93.70
57566;DHT22;63999;43.882;-0.310;2024-03-06T04:37:18;7.00;93.60
57566;DHT22;63999;43.882;-0.310;2024-03-06T04:39:45;7.00;93.60
57566;DHT22;63999;43.882;-0.310;2024-03-06T04:42:14;7.00;93.60
57566;DHT22;63999;43.882;-0.310;2024-03-06T04:44:41;7.00;93.60
57566;DHT22;63999;43.882;-0.310;2024-03-06T04:47:10;7.00;93.60
57566;DHT22;63999;43.882;-0.310;2024-03-06T04:49:37;7.00;93.40
57566;DHT22;63999;43.882;-0.310;2024-03-06T04:52:04;6.90;93.20
57566;DHT22;63999;43.882;-0.310;2024-03-06T04:54:31;6.80;93.10
57566;DHT22;63999;43.882;-0.310;2024-03-06T04:56:59;6.80;93.20
57566;DHT22;63999;43.882;-0.310;2024-03-06T04:59:26;6.80;93.20
57566;DHT22;63999;43.882;-0.310;2024-03-06T05:01:53;6.80;93.10
57566;DHT22;63999;43.882;-0.310;2024-03-06T05:04:20;6.70;93.10
57566;DHT22;63999;43.882;-0.310;2024-03-06T05:07:06;6.70;93.20
57566;DHT22;63999;43.882;-0.310;2024-03-06T05:09:50;6.70;93.10
57566;DHT22;63999;43.882;-0.310;2024-03-06T05:12:35;6.70;93.00
57566;DHT22;63999;43.882;-0.310;2024-03-06T05:15:20;6.70;93.00
57566;DHT22;63999;43.882;-0.310;2024-03-06T05:18:05;6.70;92.80
57566;DHT22;63999;43.882;-0.310;2024-03-06T05:20:50;6.60;92.80
57566;DHT22;63999;43.882;-0.310;2024-03-06T05:23:34;6.60;92.90
57566;DHT22;63999;43.882;-0.310;2024-03-06T05:26:19;6.60;92.80
57566;DHT22;63999;43.882;-0.310;2024-03-06T05:29:03;6.60;92.80
57566;DHT22;63999;43.882;-0.310;2024-03-06T05:31:48;6.60;92.80
57566;DHT22;63999;43.882;-0.310;2024-03-06T05:34:33;6.60;92.70
57566;DHT22;63999;43.882;-0.310;2024-03-06T05:37:17;6.50;92.70
57566;DHT22;63999;43.882;-0.310;2024-03-06T05:40:07;6.50;92.60
57566;DHT22;63999;43.882;-0.310;2024-03-06T05:42:53;6.50;92.70
57566;DHT22;63999;43.882;-0.310;2024-03-06T05:45:38;6.50;92.70
57566;DHT22;63999;43.882;-0.310;2024-03-06T05:48:23;6.50;92.70
57566;DHT22;63999;43.882;-0.310;2024-03-06T05:51:08;6.50;92.70
57566;DHT22;63999;43.882;-0.310;2024-03-06T05:53:54;6.50;92.60
57566;DHT22;63999;43.882;-0.310;2024-03-06T05:56:38;6.50;92.70
57566;DHT22;63999;43.882;-0.310;2024-03-06T05:59:23;6.50;92.60
57566;DHT22;63999;43.882;-0.310;2024-03-06T06:01:50;6.50;92.60
57566;DHT22;63999;43.882;-0.310;2024-03-06T06:04:18;6.50;92.50
57566;DHT22;63999;43.882;-0.310;2024-03-06T06:06:45;6.50;92.50
57566;DHT22;63999;43.882;-0.310;2024-03-06T06:09:13;6.50;92.50
57566;DHT22;63999;43.882;-0.310;2024-03-06T06:11:43;6.40;92.50
57566;DHT22;63999;43.882;-0.310;2024-03-06T06:14:11;6.40;92.50
57566;DHT22;63999;43.882;-0.310;2024-03-06T06:17:06;6.40;92.50
57566;DHT22;63999;43.882;-0.310;2024-03-06T06:20:09;6.40;92.50
57566;DHT22;63999;43.882;-0.310;2024-03-06T06:22:43;6.40;92.30
57566;DHT22;63999;43.882;-0.310;2024-03-06T06:25:10;6.40;92.40
57566;DHT22;63999;43.882;-0.310;2024-03-06T06:27:38;6.40;92.30
57566;DHT22;63999;43.882;-0.310;2024-03-06T06:30:06;6.40;92.20
57566;DHT22;63999;43.882;-0.310;2024-03-06T06:32:41;6.30;92.20
57566;DHT22;63999;43.882;-0.310;2024-03-06T06:35:10;6.30;92.30
57566;DHT22;63999;43.882;-0.310;2024-03-06T06:37:39;6.30;92.20
57566;DHT22;63999;43.882;-0.310;2024-03-06T06:40:07;6.30;92.20
57566;DHT22;63999;43.882;-0.310;2024-03-06T06:42:35;6.30;92.00
57566;DHT22;63999;43.882;-0.310;2024-03-06T06:45:04;6.20;92.00
57566;DHT22;63999;43.882;-0.310;2024-03-06T06:47:34;6.20;91.90
57566;DHT22;63999;43.882;-0.310;2024-03-06T06:50:03;6.10;91.80
57566;DHT22;63999;43.882;-0.310;2024-03-06T06:52:36;6.10;91.70
57566;DHT22;63999;43.882;-0.310;2024-03-06T06:55:03;6.10;91.80
57566;DHT22;63999;43.882;-0.310;2024-03-06T06:57:31;6.10;91.90
57566;DHT22;63999;43.882;-0.310;2024-03-06T07:00:00;6.10;92.00
57566;DHT22;63999;43.882;-0.310;2024-03-06T07:02:28;6.10;92.00
57566;DHT22;63999;43.882;-0.310;2024-03-06T07:04:55;6.10;91.80
57566;DHT22;63999;43.882;-0.310;2024-03-06T07:07:23;6.10;91.80
57566;DHT22;63999;43.882;-0.310;2024-03-06T07:09:50;6.00;91.70
57566;DHT22;63999;43.882;-0.310;2024-03-06T07:12:17;5.90;91.50
57566;DHT22;63999;43.882;-0.310;2024-03-06T07:14:46;6.00;91.70
57566;DHT22;63999;43.882;-0.310;2024-03-06T07:17:13;6.00;91.90
57566;DHT22;63999;43.882;-0.310;2024-03-06T07:19:41;6.00;91.90
57566;DHT22;63999;43.882;-0.310;2024-03-06T07:22:08;6.00;91.90
57566;DHT22;63999;43.882;-0.310;2024-03-06T07:24:35;6.00;91.90
57566;DHT22;63999;43.882;-0.310;2024-03-06T07:27:05;6.10;92.10
57566;DHT22;63999;43.882;-0.310;2024-03-06T07:29:33;6.10;91.90
57566;DHT22;63999;43.882;-0.310;2024-03-06T07:32:01;6.10;92.00
57566;DHT22;63999;43.882;-0.310;2024-03-06T07:34:29;6.10;91.90
57566;DHT22;63999;43.882;-0.310;2024-03-06T07:36:57;6.10;91.90
57566;DHT22;63999;43.882;-0.310;2024-03-06T07:39:32;6.20;92.10
57566;DHT22;63999;43.882;-0.310;2024-03-06T07:41:59;6.20;92.20
57566;DHT22;63999;43.882;-0.310;2024-03-06T07:44:30;6.30;92.30
57566;DHT22;63999;43.882;-0.310;2024-03-06T07:46:57;6.30;92.50
57566;DHT22;63999;43.882;-0.310;2024-03-06T07:49:26;6.40;92.60
57566;DHT22;63999;43.882;-0.310;2024-03-06T07:51:54;6.50;92.70
57566;DHT22;63999;43.882;-0.310;2024-03-06T07:54:21;6.60;93.00
57566;DHT22;63999;43.882;-0.310;2024-03-06T07:56:48;6.70;93.10
57566;DHT22;63999;43.882;-0.310;2024-03-06T07:59:18;6.80;93.60
57566;DHT22;63999;43.882;-0.310;2024-03-06T08:01:46;6.90;93.80
57566;DHT22;63999;43.882;-0.310;2024-03-06T08:04:18;7.00;94.20
57566;DHT22;63999;43.882;-0.310;2024-03-06T08:06:45;7.10;94.50
57566;DHT22;63999;43.882;-0.310;2024-03-06T08:09:13;7.20;94.40
57566;DHT22;63999;43.882;-0.310;2024-03-06T08:11:41;7.40;94.80
57566;DHT22;63999;43.882;-0.310;2024-03-06T08:14:08;7.50;95.00
57566;DHT22;63999;43.882;-0.310;2024-03-06T08:16:35;7.60;95.40
57566;DHT22;63999;43.882;-0.310;2024-03-06T08:19:04;7.60;95.40
57566;DHT22;63999;43.882;-0.310;2024-03-06T08:21:32;7.80;95.70
57566;DHT22;63999;43.882;-0.310;2024-03-06T08:23:59;7.90;95.70
57566;DHT22;63999;43.882;-0.310;2024-03-06T08:26:26;8.00;95.70
57566;DHT22;63999;43.882;-0.310;2024-03-06T08:28:54;8.10;96.10
57566;DHT22;63999;43.882;-0.310;2024-03-06T08:31:21;8.10;96.50
57566;DHT22;63999;43.882;-0.310;2024-03-06T08:33:49;8.20;96.40
57566;DHT22;63999;43.882;-0.310;2024-03-06T08:36:17;8.20;96.40
57566;DHT22;63999;43.882;-0.310;2024-03-06T08:38:44;8.30;96.60
57566;DHT22;63999;43.882;-0.310;2024-03-06T08:41:11;8.40;96.50
57566;DHT22;63999;43.882;-0.310;2024-03-06T08:43:39;8.40;96.70
57566;DHT22;63999;43.882;-0.310;2024-03-06T08:46:06;8.50;97.00
57566;DHT22;63999;43.882;-0.310;2024-03-06T08:48:34;8.60;97.10
57566;DHT22;63999;43.882;-0.310;2024-03-06T08:51:01;8.60;96.90
57566;DHT22;63999;43.882;-0.310;2024-03-06T08:53:30;8.60;96.90
57566;DHT22;63999;43.882;-0.310;2024-03-06T08:55:57;8.60;97.00
57566;DHT22;63999;43.882;-0.310;2024-03-06T08:58:24;8.60;97.20
57566;DHT22;63999;43.882;-0.310;2024-03-06T09:00:51;8.60;97.60
57566;DHT22;63999;43.882;-0.310;2024-03-06T09:03:18;8.80;97.50
57566;DHT22;63999;43.882;-0.310;2024-03-06T09:05:46;8.80;97.70
57566;DHT22;63999;43.882;-0.310;2024-03-06T09:08:13;8.90;97.90
57566;DHT22;63999;43.882;-0.310;2024-03-06T09:10:40;9.00;97.60
57566;DHT22;63999;43.882;-0.310;2024-03-06T09:13:07;9.00;97.50
57566;DHT22;63999;43.882;-0.310;2024-03-06T09:15:34;8.90;97.30
57566;DHT22;63999;43.882;-0.310;2024-03-06T09:18:02;8.80;97.90
57566;DHT22;63999;43.882;-0.310;2024-03-06T09:20:30;8.90;97.90
57566;DHT22;63999;43.882;-0.310;2024-03-06T09:22:59;9.00;97.90
57566;DHT22;63999;43.882;-0.310;2024-03-06T09:25:27;9.00;98.00
57566;DHT22;63999;43.882;-0.310;2024-03-06T09:27:56;9.00;98.00
57566;DHT22;63999;43.882;-0.310;2024-03-06T09:30:24;9.00;98.00
57566;DHT22;63999;43.882;-0.310;2024-03-06T09:32:51;9.10;98.30
57566;DHT22;63999;43.882;-0.310;2024-03-06T09:35:19;9.20;98.30
57566;DHT22;63999;43.882;-0.310;2024-03-06T09:37:46;9.20;98.40
57566;DHT22;63999;43.882;-0.310;2024-03-06T09:40:21;9.40;98.70
57566;DHT22;63999;43.882;-0.310;2024-03-06T09:42:52;9.40;98.50
57566;DHT22;63999;43.882;-0.310;2024-03-06T09:45:20;9.40;98.70
57566;DHT22;63999;43.882;-0.310;2024-03-06T09:47:49;9.50;99.10
57566;DHT22;63999;43.882;-0.310;2024-03-06T09:50:24;9.70;99.90
57566;DHT22;63999;43.882;-0.310;2024-03-06T09:52:55;10.00;99.90
57566;DHT22;63999;43.882;-0.310;2024-03-06T09:55:22;10.20;99.90
57566;DHT22;63999;43.882;-0.310;2024-03-06T09:57:50;10.30;99.90
57566;DHT22;63999;43.882;-0.310;2024-03-06T10:00:18;10.40;99.90
57566;DHT22;63999;43.882;-0.310;2024-03-06T10:02:57;10.30;99.90
57566;DHT22;63999;43.882;-0.310;2024-03-06T10:05:26;10.30;99.90
57566;DHT22;63999;43.882;-0.310;2024-03-06T10:07:54;10.30;99.90
57566;DHT22;63999;43.882;-0.310;2024-03-06T10:10:22;10.30;99.90
57566;DHT22;63999;43.882;-0.310;2024-03-06T10:12:50;10.30;99.90
57566;DHT22;63999;43.882;-0.310;2024-03-06T10:15:18;10.40;99.90
57566;DHT22;63999;43.882;-0.310;2024-03-06T10:17:45;10.60;99.90
57566;DHT22;63999;43.882;-0.310;2024-03-06T10:20:21;10.60;99.90
57566;DHT22;63999;43.882;-0.310;2024-03-06T10:22:53;10.50;99.90
57566;DHT22;63999;43.882;-0.310;2024-03-06T10:25:25;10.40;99.90
57566;DHT22;63999;43.882;-0.310;2024-03-06T10:28:11;10.40;99.90
57566;DHT22;63999;43.882;-0.310;2024-03-06T10:30:40;10.40;99.90
57566;DHT22;63999;43.882;-0.310;2024-03-06T10:33:13;10.50;99.90
57566;DHT22;63999;43.882;-0.310;2024-03-06T10:35:42;10.50;99.90
57566;DHT22;63999;43.882;-0.310;2024-03-06T10:38:11;10.50;99.90
57566;DHT22;63999;43.882;-0.310;2024-03-06T10:40:39;10.50;99.90
57566;DHT22;63999;43.882;-0.310;2024-03-06T10:43:07;10.50;99.90
57566;DHT22;63999;43.882;-0.310;2024-03-06T10:48:13;10.40;99.40
57566;DHT22;63999;43.882;-0.310;2024-03-06T10:50:42;10.30;99.90
57566;DHT22;63999;43.882;-0.310;2024-03-06T10:53:16;10.40;99.90
57566;DHT22;63999;43.882;-0.310;2024-03-06T10:55:50;10.50;99.90
57566;DHT22;63999;43.882;-0.310;2024-03-06T10:58:18;10.40;99.70
57566;DHT22;63999;43.882;-0.310;2024-03-06T11:00:48;10.40;99.60
57566;DHT22;63999;43.882;-0.310;2024-03-06T11:03:16;10.30;99.60
57566;DHT22;63999;43.882;-0.310;2024-03-06T11:05:44;10.30;99.80
57566;DHT22;63999;43.882;-0.310;2024-03-06T11:08:15;10.50;99.90
57566;DHT22;63999;43.882;-0.310;2024-03-06T11:10:44;10.60;99.90
57566;DHT22;63999;43.882;-0.310;2024-03-06T11:13:23;10.80;99.90
57566;DHT22;63999;43.882;-0.310;2024-03-06T11:15:57;10.80;99.90
57566;DHT22;63999;43.882;-0.310;2024-03-06T11:24:17;10.70;99.90
57566;DHT22;63999;43.882;-0.310;2024-03-06T11:27:11;10.70;99.90
57566;DHT22;63999;43.882;-0.310;2024-03-06T11:30:05;10.50;99.60
57566;DHT22;63999;43.882;-0.310;2024-03-06T11:33:00;10.50;99.70
57566;DHT22;63999;43.882;-0.310;2024-03-06T11:35:29;10.60;99.90
57566;DHT22;63999;43.882;-0.310;2024-03-06T11:37:58;10.70;99.90
57566;DHT22;63999;43.882;-0.310;2024-03-06T11:40:26;10.80;99.90
57566;DHT22;63999;43.882;-0.310;2024-03-06T11:42:54;10.90;99.90
57566;DHT22;63999;43.882;-0.310;2024-03-06T11:45:22;10.90;99.90
57566;DHT22;63999;43.882;-0.310;2024-03-06T11:48:02;10.90;99.90
57566;DHT22;63999;43.882;-0.310;2024-03-06T11:50:30;10.80;99.90
57566;DHT22;63999;43.882;-0.310;2024-03-06T11:52:59;10.90;99.90
57566;DHT22;63999;43.882;-0.310;2024-03-06T11:55:26;10.80;99.80
57566;DHT22;63999;43.882;-0.310;2024-03-06T11:57:54;10.80;99.90
57566;DHT22;63999;43.882;-0.310;2024-03-06T12:00:25;10.70;99.70
57566;DHT22;63999;43.882;-0.310;2024-03-06T12:02:52;10.70;99.70
57566;DHT22;63999;43.882;-0.310;2024-03-06T12:05:19;10.70;99.00
57566;DHT22;63999;43.882;-0.310;2024-03-06T12:07:48;10.60;99.70
57566;DHT22;63999;43.882;-0.310;2024-03-06T12:10:17;10.60;99.80
57566;DHT22;63999;43.882;-0.310;2024-03-06T12:12:45;10.70;99.70
57566;DHT22;63999;43.882;-0.310;2024-03-06T12:15:14;10.70;99.30
57566;DHT22;63999;43.882;-0.310;2024-03-06T12:17:47;10.60;98.40
57566;DHT22;63999;43.882;-0.310;2024-03-06T12:20:14;10.50;98.90
57566;DHT22;63999;43.882;-0.310;2024-03-06T12:22:49;10.50;99.10
57566;DHT22;63999;43.882;-0.310;2024-03-06T12:25:27;10.60;99.30
57566;DHT22;63999;43.882;-0.310;2024-03-06T12:27:55;10.60;98.90
57566;DHT22;63999;43.882;-0.310;2024-03-06T12:30:23;10.60;99.10
57566;DHT22;63999;43.882;-0.310;2024-03-06T12:33:00;10.60;98.30
57566;DHT22;63999;43.882;-0.310;2024-03-06T12:35:31;10.50;98.20
57566;DHT22;63999;43.882;-0.310;2024-03-06T12:37:59;10.50;98.60
57566;DHT22;63999;43.882;-0.310;2024-03-06T12:40:27;10.60;98.70
57566;DHT22;63999;43.882;-0.310;2024-03-06T12:42:55;10.60;98.90
57566;DHT22;63999;43.882;-0.310;2024-03-06T12:45:23;10.70;99.50
57566;DHT22;63999;43.882;-0.310;2024-03-06T12:47:50;10.80;99.00
57566;DHT22;63999;43.882;-0.310;2024-03-06T12:50:20;10.80;99.00
57566;DHT22;63999;43.882;-0.310;2024-03-06T12:52:47;10.80;98.90
57566;DHT22;63999;43.882;-0.310;2024-03-06T12:55:18;10.80;99.00
57566;DHT22;63999;43.882;-0.310;2024-03-06T12:57:46;10.80;98.80
57566;DHT22;63999;43.882;-0.310;2024-03-06T13:00:14;10.80;99.40
57566;DHT22;63999;43.882;-0.310;2024-03-06T13:02:46;10.90;99.40
57566;DHT22;63999;43.882;-0.310;2024-03-06T13:05:14;11.00;99.30
57566;DHT22;63999;43.882;-0.310;2024-03-06T13:07:43;10.90;99.00
57566;DHT22;63999;43.882;-0.310;2024-03-06T13:10:11;10.90;98.90
57566;DHT22;63999;43.882;-0.310;2024-03-06T13:12:39;10.90;98.40
57566;DHT22;63999;43.882;-0.310;2024-03-06T13:15:06;10.80;98.00
57566;DHT22;63999;43.882;-0.310;2024-03-06T13:17:37;10.70;97.50
57566;DHT22;63999;43.882;-0.310;2024-03-06T13:20:10;10.70;98.00
57566;DHT22;63999;43.882;-0.310;2024-03-06T13:22:39;10.70;98.90
57566;DHT22;63999;43.882;-0.310;2024-03-06T13:25:07;10.90;99.30
57566;DHT22;63999;43.882;-0.310;2024-03-06T13:27:34;11.00;99.30
57566;DHT22;63999;43.882;-0.310;2024-03-06T13:30:02;11.10;99.50
57566;DHT22;63999;43.882;-0.310;2024-03-06T13:32:32;11.10;99.40
57566;DHT22;63999;43.882;-0.310;2024-03-06T13:35:01;11.10;99.40
57566;DHT22;63999;43.882;-0.310;2024-03-06T13:37:30;11.10;99.20
57566;DHT22;63999;43.882;-0.310;2024-03-06T13:39:58;11.10;99.30
57566;DHT22;63999;43.882;-0.310;2024-03-06T13:42:28;11.10;99.40
57566;DHT22;63999;43.882;-0.310;2024-03-06T13:44:56;11.10;99.30
57566;DHT22;63999;43.882;-0.310;2024-03-06T13:47:23;11.10;98.90
57566;DHT22;63999;43.882;-0.310;2024-03-06T13:49:51;11.10;98.90
57566;DHT22;63999;43.882;-0.310;2024-03-06T13:52:19;11.10;98.70
57566;DHT22;63999;43.882;-0.310;2024-03-06T13:54:51;11.10;98.80
57566;DHT22;63999;43.882;-0.310;2024-03-06T13:57:18;11.10;99.10
57566;DHT22;63999;43.882;-0.310;2024-03-06T13:59:46;11.10;99.10
57566;DHT22;63999;43.882;-0.310;2024-03-06T14:02:14;11.10;98.80
57566;DHT22;63999;43.882;-0.310;2024-03-06T14:04:42;11.10;98.50
57566;DHT22;63999;43.882;-0.310;2024-03-06T14:07:10;11.10;98.50
57566;DHT22;63999;43.882;-0.310;2024-03-06T14:09:37;11.10;98.50
57566;DHT22;63999;43.882;-0.310;2024-03-06T14:12:05;11.10;98.70
57566;DHT22;63999;43.882;-0.310;2024-03-06T14:14:32;11.10;98.90
57566;DHT22;63999;43.882;-0.310;2024-03-06T14:17:00;11.10;98.60
57566;DHT22;63999;43.882;-0.310;2024-03-06T14:19:28;11.10;98.50
57566;DHT22;63999;43.882;-0.310;2024-03-06T14:21:56;11.10;98.40
57566;DHT22;63999;43.882;-0.310;2024-03-06T14:24:29;11.10;98.50
57566;DHT22;63999;43.882;-0.310;2024-03-06T14:26:57;11.10;98.70
57566;DHT22;63999;43.882;-0.310;2024-03-06T14:29:24;11.20;99.10
57566;DHT22;63999;43.882;-0.310;2024-03-06T14:31:54;11.30;99.20
57566;DHT22;63999;43.882;-0.310;2024-03-06T14:34:22;11.40;99.20
57566;DHT22;63999;43.882;-0.310;2024-03-06T14:36:51;11.40;99.10
57566;DHT22;63999;43.882;-0.310;2024-03-06T14:39:19;11.50;99.10
57566;DHT22;63999;43.882;-0.310;2024-03-06T14:41:49;11.40;99.00
57566;DHT22;63999;43.882;-0.310;2024-03-06T14:52:28;11.70;99.80
57566;DHT22;63999;43.882;-0.310;2024-03-06T14:54:59;11.70;99.40
57566;DHT22;63999;43.882;-0.310;2024-03-06T14:57:26;11.70;99.20
57566;DHT22;63999;43.882;-0.310;2024-03-06T14:59:54;11.70;99.30
57566;DHT22;63999;43.882;-0.310;2024-03-06T15:02:25;11.70;99.60
57566;DHT22;63999;43.882;-0.310;2024-03-06T15:04:53;11.70;99.20
57566;DHT22;63999;43.882;-0.310;2024-03-06T15:07:21;11.70;99.00
57566;DHT22;63999;43.882;-0.310;2024-03-06T15:09:48;11.60;98.80
57566;DHT22;63999;43.882;-0.310;2024-03-06T15:12:15;11.60;98.80
57566;DHT22;63999;43.882;-0.310;2024-03-06T15:14:43;11.50;98.60
57566;DHT22;63999;43.882;-0.310;2024-03-06T15:28:49;11.80;99.40
57566;DHT22;63999;43.882;-0.310;2024-03-06T15:31:17;11.80;99.00
57566;DHT22;63999;43.882;-0.310;2024-03-06T15:33:45;11.80;99.00
57566;DHT22;63999;43.882;-0.310;2024-03-06T15:36:18;11.70;98.70
57566;DHT22;63999;43.882;-0.310;2024-03-06T15:38:45;11.70;98.50
57566;DHT22;63999;43.882;-0.310;2024-03-06T15:41:13;11.70;98.80
57566;DHT22;63999;43.882;-0.310;2024-03-06T15:43:40;11.70;98.70
57566;DHT22;63999;43.882;-0.310;2024-03-06T15:46:08;11.70;98.90
57566;DHT22;63999;43.882;-0.310;2024-03-06T15:48:36;11.70;99.00
57566;DHT22;63999;43.882;-0.310;2024-03-06T15:51:05;11.80;98.80
57566;DHT22;63999;43.882;-0.310;2024-03-06T15:53:33;11.70;98.80
57566;DHT22;63999;43.882;-0.310;2024-03-06T15:56:04;11.80;98.70
57566;DHT22;63999;43.882;-0.310;2024-03-06T15:58:32;11.70;98.70
57566;DHT22;63999;43.882;-0.310;2024-03-06T16:01:00;11.80;98.80
57566;DHT22;63999;43.882;-0.310;2024-03-06T16:03:32;11.80;98.90
57566;DHT22;63999;43.882;-0.310;2024-03-06T16:05:59;11.80;98.90
57566;DHT22;63999;43.882;-0.310;2024-03-06T16:08:41;11.90;98.80